sensor_id;sensor_type;location;lat;lon;timestamp;P1;durP1;ratioP1;P2;durP2;ratioP2
14939;SDS011;11825;51.898;8.202;2023-12-04T00:00:57;35.47;;;20.93;;
14939;SDS011;11825;51.898;8.202;2023-12-04T00:05:59;33.10;;;20.47;;
14939;SDS011;11825;51.898;8.202;2023-12-04T00:11:01;33.80;;;21.63;;
14939;SDS011;11825;51.898;8.202;2023-12-04T00:16:03;33.53;;;21.53;;
14939;SDS011;11825;51.898;8.202;2023-12-04T00:21:05;41.47;;;22.47;;
14939;SDS011;11825;51.898;8.202;2023-12-04T00:26:07;36.30;;;22.00;;
14939;SDS011;11825;51.898;8.202;2023-12-04T00:31:08;32.47;;;20.90;;
14939;SDS011;11825;51.898;8.202;2023-12-04T00:36:11;34.37;;;19.67;;
14939;SDS011;11825;51.898;8.202;2023-12-04T00:41:13;31.90;;;19.43;;
14939;SDS011;11825;51.898;8.202;2023-12-04T00:46:15;33.60;;;18.53;;
14939;SDS011;11825;51.898;8.202;2023-12-04T00:51:17;30.63;;;19.23;;
14939;SDS011;11825;51.898;8.202;2023-12-04T00:56:18;34.17;;;20.80;;
14939;SDS011;11825;51.898;8.202;2023-12-04T01:01:21;29.43;;;18.67;;
14939;SDS011;11825;51.898;8.202;2023-12-04T01:06:23;29.03;;;17.50;;
14939;SDS011;11825;51.898;8.202;2023-12-04T01:11:25;29.77;;;18.37;;
14939;SDS011;11825;51.898;8.202;2023-12-04T01:16:27;23.37;;;14.77;;
14939;SDS011;11825;51.898;8.202;2023-12-04T01:21:30;27.13;;;16.87;;
14939;SDS011;11825;51.898;8.202;2023-12-04T01:26:32;26.77;;;17.10;;
14939;SDS011;11825;51.898;8.202;2023-12-04T01:31:33;26.03;;;17.33;;
14939;SDS011;11825;51.898;8.202;2023-12-04T01:36:35;28.37;;;16.37;;
14939;SDS011;11825;51.898;8.202;2023-12-04T01:41:40;27.77;;;17.57;;
14939;SDS011;11825;51.898;8.202;2023-12-04T01:46:42;26.50;;;17.37;;
14939;SDS011;11825;51.898;8.202;2023-12-04T01:51:44;27.00;;;16.13;;
14939;SDS011;11825;51.898;8.202;2023-12-04T01:56:46;26.43;;;15.70;;
14939;SDS011;11825;51.898;8.202;2023-12-04T02:01:48;24.73;;;15.07;;
14939;SDS011;11825;51.898;8.202;2023-12-04T02:06:50;23.13;;;15.73;;
14939;SDS011;11825;51.898;8.202;2023-12-04T02:11:51;22.63;;;14.23;;
14939;SDS011;11825;51.898;8.202;2023-12-04T02:16:58;26.20;;;16.33;;
14939;SDS011;11825;51.898;8.202;2023-12-04T02:22:03;18.93;;;14.20;;
14939;SDS011;11825;51.898;8.202;2023-12-04T02:27:09;23.93;;;15.60;;
14939;SDS011;11825;51.898;8.202;2023-12-04T02:32:14;20.20;;;14.20;;
14939;SDS011;11825;51.898;8.202;2023-12-04T02:37:17;21.03;;;15.53;;
14939;SDS011;11825;51.898;8.202;2023-12-04T02:42:19;24.50;;;15.97;;
14939;SDS011;11825;51.898;8.202;2023-12-04T02:47:21;23.27;;;15.67;;
14939;SDS011;11825;51.898;8.202;2023-12-04T02:52:22;18.27;;;13.63;;
14939;SDS011;11825;51.898;8.202;2023-12-04T02:57:25;21.03;;;14.70;;
14939;SDS011;11825;51.898;8.202;2023-12-04T03:02:27;19.73;;;15.37;;
14939;SDS011;11825;51.898;8.202;2023-12-04T03:07:29;21.87;;;14.90;;
14939;SDS011;11825;51.898;8.202;2023-12-04T03:12:31;17.20;;;14.63;;
14939;SDS011;11825;51.898;8.202;2023-12-04T03:17:32;20.97;;;15.13;;
14939;SDS011;11825;51.898;8.202;2023-12-04T03:22:35;19.67;;;14.03;;
14939;SDS011;11825;51.898;8.202;2023-12-04T03:27:37;19.87;;;14.60;;
14939;SDS011;11825;51.898;8.202;2023-12-04T03:32:39;22.77;;;14.30;;
14939;SDS011;11825;51.898;8.202;2023-12-04T03:37:41;20.77;;;14.53;;
14939;SDS011;11825;51.898;8.202;2023-12-04T03:42:43;22.13;;;14.13;;
14939;SDS011;11825;51.898;8.202;2023-12-04T03:47:44;19.03;;;13.73;;
14939;SDS011;11825;51.898;8.202;2023-12-04T03:52:47;17.53;;;13.40;;
14939;SDS011;11825;51.898;8.202;2023-12-04T03:57:48;19.10;;;13.87;;
14939;SDS011;11825;51.898;8.202;2023-12-04T04:02:50;22.13;;;14.90;;
14939;SDS011;11825;51.898;8.202;2023-12-04T04:07:52;19.40;;;13.13;;
14939;SDS011;11825;51.898;8.202;2023-12-04T04:12:54;18.00;;;13.43;;
14939;SDS011;11825;51.898;8.202;2023-12-04T04:17:55;18.07;;;14.07;;
14939;SDS011;11825;51.898;8.202;2023-12-04T04:22:57;19.43;;;13.90;;
14939;SDS011;11825;51.898;8.202;2023-12-04T04:27:59;16.33;;;13.07;;
14939;SDS011;11825;51.898;8.202;2023-12-04T04:33:01;19.80;;;13.17;;
14939;SDS011;11825;51.898;8.202;2023-12-04T04:38:05;19.93;;;14.27;;
14939;SDS011;11825;51.898;8.202;2023-12-04T04:43:07;18.37;;;13.77;;
14939;SDS011;11825;51.898;8.202;2023-12-04T04:48:09;17.03;;;12.40;;
14939;SDS011;11825;51.898;8.202;2023-12-04T04:53:11;17.30;;;13.23;;
14939;SDS011;11825;51.898;8.202;2023-12-04T04:58:13;16.87;;;12.33;;
14939;SDS011;11825;51.898;8.202;2023-12-04T05:03:15;15.43;;;11.77;;
14939;SDS011;11825;51.898;8.202;2023-12-04T05:08:17;15.57;;;12.20;;
14939;SDS011;11825;51.898;8.202;2023-12-04T05:13:19;18.30;;;14.03;;
14939;SDS011;11825;51.898;8.202;2023-12-04T05:18:20;13.80;;;11.50;;
14939;SDS011;11825;51.898;8.202;2023-12-04T05:23:22;16.37;;;12.53;;
14939;SDS011;11825;51.898;8.202;2023-12-04T05:28:24;15.90;;;11.53;;
14939;SDS011;11825;51.898;8.202;2023-12-04T05:33:25;16.57;;;12.37;;
14939;SDS011;11825;51.898;8.202;2023-12-04T05:38:28;17.87;;;12.53;;
14939;SDS011;11825;51.898;8.202;2023-12-04T05:43:30;14.57;;;10.77;;
14939;SDS011;11825;51.898;8.202;2023-12-04T05:48:31;14.57;;;11.10;;
14939;SDS011;11825;51.898;8.202;2023-12-04T05:53:33;12.27;;;10.40;;
14939;SDS011;11825;51.898;8.202;2023-12-04T05:58:35;15.43;;;11.50;;
14939;SDS011;11825;51.898;8.202;2023-12-04T06:03:37;13.10;;;10.87;;
14939;SDS011;11825;51.898;8.202;2023-12-04T06:08:38;13.43;;;9.57;;
14939;SDS011;11825;51.898;8.202;2023-12-04T06:13:40;14.97;;;10.90;;
14939;SDS011;11825;51.898;8.202;2023-12-04T06:18:42;14.97;;;11.30;;
14939;SDS011;11825;51.898;8.202;2023-12-04T06:23:44;15.17;;;11.80;;
14939;SDS011;11825;51.898;8.202;2023-12-04T06:28:46;13.40;;;10.53;;
14939;SDS011;11825;51.898;8.202;2023-12-04T06:33:48;13.97;;;10.87;;
14939;SDS011;11825;51.898;8.202;2023-12-04T06:38:50;14.87;;;10.77;;
14939;SDS011;11825;51.898;8.202;2023-12-04T06:43:53;14.53;;;10.13;;
14939;SDS011;11825;51.898;8.202;2023-12-04T06:48:56;15.90;;;11.57;;
14939;SDS011;11825;51.898;8.202;2023-12-04T06:53:58;15.67;;;10.43;;
14939;SDS011;11825;51.898;8.202;2023-12-04T06:59:00;13.93;;;10.13;;
14939;SDS011;11825;51.898;8.202;2023-12-04T07:04:02;12.37;;;9.80;;
14939;SDS011;11825;51.898;8.202;2023-12-04T07:09:11;13.77;;;10.67;;
14939;SDS011;11825;51.898;8.202;2023-12-04T07:14:12;14.33;;;10.50;;
14939;SDS011;11825;51.898;8.202;2023-12-04T07:19:14;16.00;;;11.37;;
14939;SDS011;11825;51.898;8.202;2023-12-04T07:24:17;13.50;;;10.53;;
14939;SDS011;11825;51.898;8.202;2023-12-04T07:29:19;14.70;;;11.30;;
14939;SDS011;11825;51.898;8.202;2023-12-04T07:34:21;16.83;;;11.43;;
14939;SDS011;11825;51.898;8.202;2023-12-04T07:39:23;13.23;;;9.60;;
14939;SDS011;11825;51.898;8.202;2023-12-04T07:44:24;13.97;;;10.57;;
14939;SDS011;11825;51.898;8.202;2023-12-04T07:49:26;13.43;;;9.87;;
14939;SDS011;11825;51.898;8.202;2023-12-04T07:54:29;15.83;;;10.50;;
14939;SDS011;11825;51.898;8.202;2023-12-04T07:59:30;14.13;;;10.30;;
14939;SDS011;11825;51.898;8.202;2023-12-04T08:04:32;13.57;;;10.03;;
14939;SDS011;11825;51.898;8.202;2023-12-04T08:09:34;15.37;;;10.47;;
14939;SDS011;11825;51.898;8.202;2023-12-04T08:14:36;14.10;;;9.63;;
14939;SDS011;11825;51.898;8.202;2023-12-04T08:19:37;13.00;;;10.67;;
14939;SDS011;11825;51.898;8.202;2023-12-04T08:24:40;13.43;;;9.83;;
14939;SDS011;11825;51.898;8.202;2023-12-04T08:29:41;13.60;;;11.23;;
14939;SDS011;11825;51.898;8.202;2023-12-04T08:34:43;14.53;;;9.93;;
14939;SDS011;11825;51.898;8.202;2023-12-04T08:39:45;13.63;;;11.10;;
14939;SDS011;11825;51.898;8.202;2023-12-04T08:44:47;12.63;;;9.80;;
14939;SDS011;11825;51.898;8.202;2023-12-04T08:49:49;13.63;;;10.60;;
14939;SDS011;11825;51.898;8.202;2023-12-04T08:54:50;10.63;;;9.43;;
14939;SDS011;11825;51.898;8.202;2023-12-04T08:59:52;11.30;;;9.33;;
14939;SDS011;11825;51.898;8.202;2023-12-04T09:04:54;11.33;;;8.93;;
14939;SDS011;11825;51.898;8.202;2023-12-04T09:09:56;11.33;;;9.13;;
14939;SDS011;11825;51.898;8.202;2023-12-04T09:14:58;10.70;;;8.93;;
14939;SDS011;11825;51.898;8.202;2023-12-04T09:20:00;10.93;;;8.27;;
14939;SDS011;11825;51.898;8.202;2023-12-04T09:25:02;12.73;;;9.90;;
14939;SDS011;11825;51.898;8.202;2023-12-04T09:30:04;11.63;;;7.67;;
14939;SDS011;11825;51.898;8.202;2023-12-04T09:35:06;11.90;;;8.80;;
14939;SDS011;11825;51.898;8.202;2023-12-04T09:40:08;11.97;;;9.00;;
14939;SDS011;11825;51.898;8.202;2023-12-04T09:45:11;11.70;;;8.57;;
14939;SDS011;11825;51.898;8.202;2023-12-04T09:50:14;12.07;;;8.63;;
14939;SDS011;11825;51.898;8.202;2023-12-04T09:55:17;9.10;;;7.20;;
14939;SDS011;11825;51.898;8.202;2023-12-04T10:00:19;11.10;;;8.70;;
14939;SDS011;11825;51.898;8.202;2023-12-04T10:05:21;9.97;;;8.27;;
14939;SDS011;11825;51.898;8.202;2023-12-04T10:10:25;11.93;;;7.87;;
14939;SDS011;11825;51.898;8.202;2023-12-04T10:15:26;10.07;;;7.53;;
14939;SDS011;11825;51.898;8.202;2023-12-04T10:20:28;9.87;;;7.73;;
14939;SDS011;11825;51.898;8.202;2023-12-04T10:25:30;10.90;;;8.00;;
14939;SDS011;11825;51.898;8.202;2023-12-04T10:30:32;12.87;;;9.07;;
14939;SDS011;11825;51.898;8.202;2023-12-04T10:35:35;10.03;;;8.57;;
14939;SDS011;11825;51.898;8.202;2023-12-04T10:40:38;10.13;;;7.43;;
14939;SDS011;11825;51.898;8.202;2023-12-04T10:45:40;10.30;;;7.60;;
14939;SDS011;11825;51.898;8.202;2023-12-04T10:50:46;8.67;;;7.60;;
14939;SDS011;11825;51.898;8.202;2023-12-04T10:55:49;10.47;;;8.37;;
14939;SDS011;11825;51.898;8.202;2023-12-04T11:00:53;10.13;;;8.00;;
14939;SDS011;11825;51.898;8.202;2023-12-04T11:06:01;11.60;;;8.27;;
14939;SDS011;11825;51.898;8.202;2023-12-04T11:11:06;9.87;;;8.47;;
14939;SDS011;11825;51.898;8.202;2023-12-04T11:16:22;10.20;;;7.90;;
14939;SDS011;11825;51.898;8.202;2023-12-04T11:21:26;10.03;;;7.97;;
14939;SDS011;11825;51.898;8.202;2023-12-04T11:26:29;10.20;;;9.00;;
14939;SDS011;11825;51.898;8.202;2023-12-04T11:31:31;11.37;;;8.63;;
14939;SDS011;11825;51.898;8.202;2023-12-04T11:36:33;12.53;;;9.50;;
14939;SDS011;11825;51.898;8.202;2023-12-04T11:41:35;12.47;;;8.33;;
14939;SDS011;11825;51.898;8.202;2023-12-04T11:46:38;12.60;;;9.30;;
14939;SDS011;11825;51.898;8.202;2023-12-04T11:56:56;11.77;;;9.27;;
14939;SDS011;11825;51.898;8.202;2023-12-04T12:01:58;12.30;;;9.73;;
14939;SDS011;11825;51.898;8.202;2023-12-04T12:07:01;12.03;;;9.87;;
14939;SDS011;11825;51.898;8.202;2023-12-04T12:12:04;11.73;;;8.57;;
14939;SDS011;11825;51.898;8.202;2023-12-04T12:17:06;10.23;;;8.43;;
14939;SDS011;11825;51.898;8.202;2023-12-04T12:22:08;11.73;;;8.93;;
14939;SDS011;11825;51.898;8.202;2023-12-04T12:27:10;13.50;;;9.80;;
14939;SDS011;11825;51.898;8.202;2023-12-04T12:32:12;13.07;;;9.70;;
14939;SDS011;11825;51.898;8.202;2023-12-04T12:37:14;12.20;;;9.33;;
14939;SDS011;11825;51.898;8.202;2023-12-04T12:42:26;12.03;;;9.77;;
14939;SDS011;11825;51.898;8.202;2023-12-04T12:47:28;13.50;;;10.10;;
14939;SDS011;11825;51.898;8.202;2023-12-04T12:52:31;13.03;;;10.33;;
14939;SDS011;11825;51.898;8.202;2023-12-04T12:57:35;12.87;;;10.27;;
14939;SDS011;11825;51.898;8.202;2023-12-04T13:02:36;13.93;;;9.40;;
14939;SDS011;11825;51.898;8.202;2023-12-04T13:07:39;10.73;;;8.90;;
14939;SDS011;11825;51.898;8.202;2023-12-04T13:12:42;11.27;;;9.50;;
14939;SDS011;11825;51.898;8.202;2023-12-04T13:17:44;11.70;;;9.00;;
14939;SDS011;11825;51.898;8.202;2023-12-04T13:22:45;13.03;;;10.43;;
14939;SDS011;11825;51.898;8.202;2023-12-04T13:27:47;12.97;;;10.20;;
14939;SDS011;11825;51.898;8.202;2023-12-04T13:32:50;11.83;;;9.50;;
14939;SDS011;11825;51.898;8.202;2023-12-04T13:37:52;15.33;;;11.53;;
14939;SDS011;11825;51.898;8.202;2023-12-04T13:42:58;14.60;;;10.20;;
14939;SDS011;11825;51.898;8.202;2023-12-04T13:48:18;12.07;;;9.27;;
14939;SDS011;11825;51.898;8.202;2023-12-04T13:53:22;15.10;;;8.63;;
14939;SDS011;11825;51.898;8.202;2023-12-04T13:58:30;14.03;;;9.77;;
14939;SDS011;11825;51.898;8.202;2023-12-04T14:03:40;13.80;;;10.10;;
14939;SDS011;11825;51.898;8.202;2023-12-04T14:08:43;11.70;;;9.23;;
14939;SDS011;11825;51.898;8.202;2023-12-04T14:13:45;12.63;;;10.70;;
14939;SDS011;11825;51.898;8.202;2023-12-04T14:18:47;13.47;;;10.00;;
14939;SDS011;11825;51.898;8.202;2023-12-04T14:23:48;10.57;;;8.70;;
14939;SDS011;11825;51.898;8.202;2023-12-04T14:28:50;12.37;;;10.27;;
14939;SDS011;11825;51.898;8.202;2023-12-04T14:33:52;12.93;;;9.20;;
14939;SDS011;11825;51.898;8.202;2023-12-04T14:38:55;13.37;;;10.10;;
14939;SDS011;11825;51.898;8.202;2023-12-04T14:43:59;15.17;;;12.03;;
14939;SDS011;11825;51.898;8.202;2023-12-04T14:49:01;13.70;;;10.03;;
14939;SDS011;11825;51.898;8.202;2023-12-04T14:54:03;11.80;;;9.20;;
14939;SDS011;11825;51.898;8.202;2023-12-04T14:59:31;15.80;;;10.17;;
14939;SDS011;11825;51.898;8.202;2023-12-04T15:04:53;18.20;;;10.87;;
14939;SDS011;11825;51.898;8.202;2023-12-04T15:09:59;14.30;;;10.57;;
14939;SDS011;11825;51.898;8.202;2023-12-04T15:15:13;12.93;;;10.03;;
14939;SDS011;11825;51.898;8.202;2023-12-04T15:20:33;11.13;;;9.93;;
14939;SDS011;11825;51.898;8.202;2023-12-04T15:25:39;16.80;;;10.83;;
14939;SDS011;11825;51.898;8.202;2023-12-04T15:30:41;12.80;;;10.40;;
14939;SDS011;11825;51.898;8.202;2023-12-04T15:35:43;16.63;;;12.67;;
14939;SDS011;11825;51.898;8.202;2023-12-04T15:40:45;18.23;;;12.30;;
14939;SDS011;11825;51.898;8.202;2023-12-04T15:45:47;15.40;;;11.83;;
14939;SDS011;11825;51.898;8.202;2023-12-04T15:50:49;12.37;;;10.20;;
14939;SDS011;11825;51.898;8.202;2023-12-04T15:55:51;15.27;;;11.73;;
14939;SDS011;11825;51.898;8.202;2023-12-04T16:00:52;13.93;;;11.30;;
14939;SDS011;11825;51.898;8.202;2023-12-04T16:05:54;16.00;;;12.13;;
14939;SDS011;11825;51.898;8.202;2023-12-04T16:10:56;14.63;;;10.67;;
14939;SDS011;11825;51.898;8.202;2023-12-04T16:15:58;12.47;;;10.83;;
14939;SDS011;11825;51.898;8.202;2023-12-04T16:21:00;14.63;;;11.10;;
14939;SDS011;11825;51.898;8.202;2023-12-04T16:26:01;11.50;;;9.80;;
14939;SDS011;11825;51.898;8.202;2023-12-04T16:31:04;13.23;;;9.63;;
14939;SDS011;11825;51.898;8.202;2023-12-04T16:36:06;13.13;;;9.47;;
14939;SDS011;11825;51.898;8.202;2023-12-04T16:41:12;11.50;;;9.80;;
14939;SDS011;11825;51.898;8.202;2023-12-04T16:46:14;12.33;;;10.53;;
14939;SDS011;11825;51.898;8.202;2023-12-04T16:51:17;15.20;;;12.60;;
14939;SDS011;11825;51.898;8.202;2023-12-04T16:56:19;14.17;;;12.13;;
14939;SDS011;11825;51.898;8.202;2023-12-04T17:01:20;11.80;;;9.50;;
14939;SDS011;11825;51.898;8.202;2023-12-04T17:06:22;13.40;;;10.40;;
14939;SDS011;11825;51.898;8.202;2023-12-04T17:11:24;14.97;;;10.67;;
14939;SDS011;11825;51.898;8.202;2023-12-04T17:16:26;12.80;;;9.50;;
14939;SDS011;11825;51.898;8.202;2023-12-04T17:21:29;12.43;;;10.20;;
14939;SDS011;11825;51.898;8.202;2023-12-04T17:26:31;15.23;;;10.93;;
14939;SDS011;11825;51.898;8.202;2023-12-04T17:31:33;12.20;;;8.40;;
14939;SDS011;11825;51.898;8.202;2023-12-04T17:36:34;11.63;;;9.73;;
14939;SDS011;11825;51.898;8.202;2023-12-04T17:41:36;13.03;;;10.43;;
14939;SDS011;11825;51.898;8.202;2023-12-04T17:46:38;11.50;;;9.80;;
14939;SDS011;11825;51.898;8.202;2023-12-04T17:51:40;13.13;;;11.70;;
14939;SDS011;11825;51.898;8.202;2023-12-04T17:56:42;11.13;;;8.97;;
14939;SDS011;11825;51.898;8.202;2023-12-04T18:01:43;11.60;;;9.23;;
14939;SDS011;11825;51.898;8.202;2023-12-04T18:06:46;11.57;;;9.10;;
14939;SDS011;11825;51.898;8.202;2023-12-04T18:11:48;13.03;;;9.27;;
14939;SDS011;11825;51.898;8.202;2023-12-04T18:16:50;10.50;;;8.87;;
14939;SDS011;11825;51.898;8.202;2023-12-04T18:21:52;10.50;;;8.40;;
14939;SDS011;11825;51.898;8.202;2023-12-04T18:26:54;15.10;;;8.80;;
14939;SDS011;11825;51.898;8.202;2023-12-04T18:31:56;10.40;;;8.30;;
14939;SDS011;11825;51.898;8.202;2023-12-04T18:37:01;12.10;;;9.73;;
14939;SDS011;11825;51.898;8.202;2023-12-04T18:42:07;11.67;;;9.83;;
14939;SDS011;11825;51.898;8.202;2023-12-04T18:47:09;12.27;;;10.03;;
14939;SDS011;11825;51.898;8.202;2023-12-04T18:52:16;14.20;;;11.27;;
14939;SDS011;11825;51.898;8.202;2023-12-04T18:57:19;13.23;;;10.27;;
14939;SDS011;11825;51.898;8.202;2023-12-04T19:02:21;13.53;;;11.20;;
14939;SDS011;11825;51.898;8.202;2023-12-04T19:07:23;13.03;;;10.87;;
14939;SDS011;11825;51.898;8.202;2023-12-04T19:12:24;22.23;;;16.63;;
14939;SDS011;11825;51.898;8.202;2023-12-04T19:17:26;15.13;;;11.97;;
14939;SDS011;11825;51.898;8.202;2023-12-04T19:22:28;15.20;;;11.57;;
14939;SDS011;11825;51.898;8.202;2023-12-04T19:27:30;14.10;;;10.20;;
14939;SDS011;11825;51.898;8.202;2023-12-04T19:32:31;13.43;;;11.17;;
14939;SDS011;11825;51.898;8.202;2023-12-04T19:37:33;17.57;;;12.13;;
14939;SDS011;11825;51.898;8.202;2023-12-04T19:42:36;15.37;;;12.90;;
14939;SDS011;11825;51.898;8.202;2023-12-04T19:47:38;16.03;;;12.00;;
14939;SDS011;11825;51.898;8.202;2023-12-04T19:52:42;13.43;;;11.07;;
14939;SDS011;11825;51.898;8.202;2023-12-04T19:57:44;13.37;;;10.53;;
14939;SDS011;11825;51.898;8.202;2023-12-04T20:02:49;15.70;;;11.73;;
14939;SDS011;11825;51.898;8.202;2023-12-04T20:07:50;16.43;;;10.50;;
14939;SDS011;11825;51.898;8.202;2023-12-04T20:12:52;12.53;;;10.87;;
14939;SDS011;11825;51.898;8.202;2023-12-04T20:17:54;13.60;;;10.40;;
14939;SDS011;11825;51.898;8.202;2023-12-04T20:22:56;23.40;;;15.93;;
14939;SDS011;11825;51.898;8.202;2023-12-04T20:27:58;14.70;;;11.20;;
14939;SDS011;11825;51.898;8.202;2023-12-04T20:33:00;14.63;;;11.17;;
14939;SDS011;11825;51.898;8.202;2023-12-04T20:38:03;13.37;;;9.97;;
14939;SDS011;11825;51.898;8.202;2023-12-04T20:43:06;13.63;;;9.70;;
14939;SDS011;11825;51.898;8.202;2023-12-04T20:48:08;13.30;;;10.70;;
14939;SDS011;11825;51.898;8.202;2023-12-04T20:53:12;12.07;;;10.53;;
14939;SDS011;11825;51.898;8.202;2023-12-04T20:58:16;16.40;;;12.23;;
14939;SDS011;11825;51.898;8.202;2023-12-04T21:03:19;12.33;;;9.97;;
14939;SDS011;11825;51.898;8.202;2023-12-04T21:08:21;14.43;;;10.53;;
14939;SDS011;11825;51.898;8.202;2023-12-04T21:13:23;14.10;;;9.77;;
14939;SDS011;11825;51.898;8.202;2023-12-04T21:18:25;12.60;;;10.03;;
14939;SDS011;11825;51.898;8.202;2023-12-04T21:23:27;11.73;;;9.47;;
14939;SDS011;11825;51.898;8.202;2023-12-04T21:28:29;13.20;;;10.20;;
14939;SDS011;11825;51.898;8.202;2023-12-04T21:33:31;13.93;;;10.70;;
14939;SDS011;11825;51.898;8.202;2023-12-04T21:38:32;13.33;;;9.67;;
14939;SDS011;11825;51.898;8.202;2023-12-04T21:43:34;14.47;;;10.13;;
14939;SDS011;11825;51.898;8.202;2023-12-04T21:48:36;13.37;;;10.60;;
14939;SDS011;11825;51.898;8.202;2023-12-04T21:53:38;13.43;;;10.97;;
14939;SDS011;11825;51.898;8.202;2023-12-04T21:58:40;13.30;;;10.97;;
14939;SDS011;11825;51.898;8.202;2023-12-04T22:03:44;13.63;;;10.17;;
14939;SDS011;11825;51.898;8.202;2023-12-04T22:08:46;12.63;;;9.97;;
14939;SDS011;11825;51.898;8.202;2023-12-04T22:13:48;13.93;;;9.70;;
14939;SDS011;11825;51.898;8.202;2023-12-04T22:18:50;11.57;;;10.30;;
14939;SDS011;11825;51.898;8.202;2023-12-04T22:23:51;12.03;;;9.57;;
14939;SDS011;11825;51.898;8.202;2023-12-04T22:28:54;11.90;;;10.07;;
14939;SDS011;11825;51.898;8.202;2023-12-04T22:33:56;13.73;;;9.73;;
14939;SDS011;11825;51.898;8.202;2023-12-04T22:38:58;10.40;;;9.20;;
14939;SDS011;11825;51.898;8.202;2023-12-04T22:44:00;11.20;;;9.13;;
14939;SDS011;11825;51.898;8.202;2023-12-04T22:49:02;13.37;;;9.37;;
14939;SDS011;11825;51.898;8.202;2023-12-04T22:54:04;12.30;;;10.60;;
14939;SDS011;11825;51.898;8.202;2023-12-04T22:59:06;12.23;;;9.20;;
14939;SDS011;11825;51.898;8.202;2023-12-04T23:04:07;10.97;;;9.53;;
14939;SDS011;11825;51.898;8.202;2023-12-04T23:09:09;13.60;;;9.83;;
14939;SDS011;11825;51.898;8.202;2023-12-04T23:14:11;11.37;;;8.87;;
14939;SDS011;11825;51.898;8.202;2023-12-04T23:19:13;11.63;;;9.30;;
14939;SDS011;11825;51.898;8.202;2023-12-04T23:24:15;12.23;;;9.23;;
14939;SDS011;11825;51.898;8.202;2023-12-04T23:29:16;10.20;;;8.13;;
14939;SDS011;11825;51.898;8.202;2023-12-04T23:34:19;11.37;;;8.93;;
14939;SDS011;11825;51.898;8.202;2023-12-04T23:39:20;10.30;;;8.73;;
14939;SDS011;11825;51.898;8.202;2023-12-04T23:44:22;9.60;;;8.23;;
14939;SDS011;11825;51.898;8.202;2023-12-04T23:49:24;10.07;;;8.43;;
14939;SDS011;11825;51.898;8.202;2023-12-04T23:54:26;12.53;;;9.30;;
14939;SDS011;11825;51.898;8.202;2023-12-04T23:59:29;10.43;;;9.10;;
